Time;durP1;ratioP1;P1;durP2;ratioP2;P2;SDS_P1;SDS_P2;PMS_P1;PMS_P2;Temp;Humidity;BMP_temperature;BMP_pressure;BME280_temperature;BME280_humidity;BME280_pressure;Samples;Min_cycle;Max_cycle;Signal;HPM_P1;HPM_P2
2020/12/08 00:01:49;;;;;;;13.50;8.67;;;;;;;;;;5053407;28;20462;-70
2020/12/08 00:04:16;;;;;;;15.47;9.60;;;;;;;;;;5055035;28;20809;-70
2020/12/08 00:06:42;;;;;;;18.57;9.40;;;;;;;;;;5036371;28;20818;-70
2020/12/08 00:09:08;;;;;;;14.90;8.93;;;;;;;;;;5054586;28;20433;-70
2020/12/08 00:11:34;;;;;;;13.37;8.90;;;;;;;;;;5053701;28;20422;-70
2020/12/08 00:14:00;;;;;;;14.87;9.87;;;;;;;;;;5054952;28;20725;-70
2020/12/08 00:16:26;;;;;;;16.67;10.30;;;;;;;;;;5053650;28;20434;-70
2020/12/08 00:18:52;;;;;;;14.80;9.70;;;;;;;;;;5054845;28;20398;-69
2020/12/08 00:21:18;;;;;;;16.37;10.80;;;;;;;;;;5053409;28;20456;-69
2020/12/08 00:23:45;;;;;;;14.70;9.07;;;;;;;;;;5054011;28;20929;-70
2020/12/08 00:26:14;;;;;;;18.10;9.90;;;;;;;;;;5051814;28;20434;-69
2020/12/08 00:28:40;;;;;;;20.53;11.53;;;;;;;;;;5051936;28;20491;-70
2020/12/08 00:31:06;;;;;;;17.27;10.83;;;;;;;;;;5052369;28;20540;-70
2020/12/08 00:33:32;;;;;;;17.40;9.90;;;;;;;;;;5054146;28;20401;-71
2020/12/08 00:35:58;;;;;;;16.50;10.43;;;;;;;;;;5053187;28;20763;-70
2020/12/08 00:38:25;;;;;;;17.53;9.30;;;;;;;;;;5054049;28;20402;-71
2020/12/08 00:40:51;;;;;;;15.80;8.23;;;;;;;;;;5052848;28;20418;-70
2020/12/08 00:43:17;;;;;;;14.17;8.70;;;;;;;;;;5053239;28;20446;-69
2020/12/08 00:45:44;;;;;;;17.40;10.07;;;;;;;;;;5053360;28;20987;-70
2020/12/08 00:48:11;;;;;;;16.17;8.37;;;;;;;;;;5053555;28;20622;-71
2020/12/08 00:50:37;;;;;;;16.53;11.10;;;;;;;;;;5053686;28;20426;-71
2020/12/08 00:53:03;;;;;;;13.30;7.67;;;;;;;;;;5052731;28;20934;-70
2020/12/08 00:55:29;;;;;;;16.93;8.20;;;;;;;;;;5053684;28;20398;-71
2020/12/08 00:57:55;;;;;;;12.63;8.60;;;;;;;;;;5053205;28;20471;-71
2020/12/08 01:00:21;;;;;;;14.07;9.10;;;;;;;;;;5036245;28;20460;-70
2020/12/08 01:02:48;;;;;;;17.57;8.60;;;;;;;;;;5052692;28;20425;-71
2020/12/08 01:05:14;;;;;;;15.57;8.50;;;;;;;;;;5053849;28;20747;-71
2020/12/08 01:07:40;;;;;;;16.30;9.73;;;;;;;;;;5052667;28;21019;-71
2020/12/08 01:10:07;;;;;;;13.10;8.07;;;;;;;;;;5053592;28;20491;-71
2020/12/08 01:12:33;;;;;;;17.17;8.10;;;;;;;;;;5052692;28;20430;-71
2020/12/08 01:14:59;;;;;;;12.60;8.67;;;;;;;;;;5053548;28;20816;-70
2020/12/08 01:17:25;;;;;;;17.33;9.87;;;;;;;;;;5034523;28;20781;-69
2020/12/08 01:19:51;;;;;;;16.67;9.73;;;;;;;;;;5051787;28;20446;-70
2020/12/08 01:22:17;;;;;;;20.40;11.40;;;;;;;;;;5052501;28;20434;-70
2020/12/08 01:24:43;;;;;;;15.50;8.00;;;;;;;;;;5053444;28;20413;-70
2020/12/08 01:27:09;;;;;;;18.60;9.77;;;;;;;;;;5051687;28;20796;-70
2020/12/08 01:29:35;;;;;;;15.07;8.53;;;;;;;;;;5049080;28;20533;-70
2020/12/08 01:32:01;;;;;;;15.50;8.70;;;;;;;;;;5034421;28;20431;-70
2020/12/08 01:34:27;;;;;;;15.10;9.10;;;;;;;;;;5052993;28;20447;-70
2020/12/08 01:36:53;;;;;;;15.57;8.57;;;;;;;;;;5034611;28;20422;-70
2020/12/08 01:39:19;;;;;;;16.37;9.23;;;;;;;;;;5053170;28;20463;-70
2020/12/08 01:41:45;;;;;;;13.90;8.57;;;;;;;;;;5052323;28;20433;-70
2020/12/08 01:44:14;;;;;;;15.10;9.53;;;;;;;;;;5053245;28;20759;-70
2020/12/08 01:46:41;;;;;;;15.30;9.23;;;;;;;;;;5052166;28;20454;-70
2020/12/08 01:49:07;;;;;;;16.90;8.67;;;;;;;;;;5050232;28;20835;-70
2020/12/08 01:51:33;;;;;;;16.10;9.60;;;;;;;;;;5052411;28;20406;-70
2020/12/08 01:53:59;;;;;;;16.10;8.57;;;;;;;;;;5053249;28;20493;-70
2020/12/08 01:56:25;;;;;;;12.90;7.77;;;;;;;;;;5052311;28;20485;-69
2020/12/08 01:58:51;;;;;;;20.67;10.03;;;;;;;;;;5052507;28;20422;-70
2020/12/08 02:01:17;;;;;;;14.67;8.13;;;;;;;;;;5052783;28;20422;-70
2020/12/08 02:03:43;;;;;;;17.87;9.60;;;;;;;;;;5051342;28;20422;-70
2020/12/08 02:06:09;;;;;;;17.10;9.27;;;;;;;;;;5052876;28;20394;-70
2020/12/08 02:08:37;;;;;;;15.57;8.47;;;;;;;;;;5033890;28;20484;-70
2020/12/08 02:11:03;;;;;;;13.47;8.40;;;;;;;;;;5052739;28;20422;-70
2020/12/08 02:13:29;;;;;;;14.30;8.67;;;;;;;;;;5052451;28;20949;-70
2020/12/08 02:15:55;;;;;;;16.70;8.47;;;;;;;;;;5053080;28;20797;-71
2020/12/08 02:18:22;;;;;;;14.67;8.97;;;;;;;;;;5050328;28;20918;-71
2020/12/08 02:20:53;;;;;;;16.70;9.37;;;;;;;;;;5052639;28;20429;-71
2020/12/08 02:23:19;;;;;;;14.30;8.50;;;;;;;;;;5050341;28;20417;-71
2020/12/08 02:25:45;;;;;;;19.37;9.23;;;;;;;;;;5052688;28;20402;-70
2020/12/08 02:28:11;;;;;;;14.87;8.73;;;;;;;;;;5051736;28;20457;-71
2020/12/08 02:30:37;;;;;;;12.77;7.90;;;;;;;;;;5048639;28;20442;-71
2020/12/08 02:33:03;;;;;;;10.70;7.03;;;;;;;;;;5052033;28;20457;-71
2020/12/08 02:35:29;;;;;;;16.23;8.87;;;;;;;;;;5052747;28;20770;-71
2020/12/08 02:37:55;;;;;;;11.70;7.40;;;;;;;;;;5051589;28;20430;-71
2020/12/08 02:40:21;;;;;;;13.30;7.23;;;;;;;;;;5052455;28;20441;-71
2020/12/08 02:42:47;;;;;;;10.53;6.40;;;;;;;;;;5052055;28;20429;-71
2020/12/08 02:45:13;;;;;;;10.43;6.90;;;;;;;;;;5052818;28;20414;-71
2020/12/08 02:47:39;;;;;;;10.70;6.60;;;;;;;;;;5056856;28;20597;-69
2020/12/08 02:50:06;;;;;;;8.40;6.23;;;;;;;;;;5076247;28;20439;-71
2020/12/08 02:52:34;;;;;;;15.27;8.10;;;;;;;;;;5072055;28;20424;-70
2020/12/08 02:55:01;;;;;;;12.20;6.80;;;;;;;;;;5076409;28;20405;-69
2020/12/08 02:57:27;;;;;;;15.80;8.67;;;;;;;;;;5074315;28;20413;-68
2020/12/08 02:59:53;;;;;;;13.40;7.83;;;;;;;;;;5075996;28;20511;-69
2020/12/08 03:02:19;;;;;;;12.77;7.70;;;;;;;;;;5062860;28;20454;-68
2020/12/08 03:04:45;;;;;;;14.63;8.20;;;;;;;;;;5055656;28;20483;-72
2020/12/08 03:07:11;;;;;;;14.10;7.90;;;;;;;;;;5055852;28;20813;-70
2020/12/08 03:09:37;;;;;;;15.63;7.87;;;;;;;;;;5072727;28;20471;-71
2020/12/08 03:12:06;;;;;;;13.93;7.60;;;;;;;;;;5075927;28;20394;-71
2020/12/08 03:14:32;;;;;;;12.90;7.43;;;;;;;;;;5073999;28;20420;-71
2020/12/08 03:16:58;;;;;;;12.57;7.00;;;;;;;;;;5075750;28;20896;-71
2020/12/08 03:19:33;;;;;;;13.23;8.00;;;;;;;;;;5091734;22;20456;-88
2020/12/08 03:22:20;;;;;;;12.70;6.93;;;;;;;;;;5075454;28;20936;-89
2020/12/08 03:24:49;;;;;;;12.17;7.93;;;;;;;;;;5077750;28;20413;-89
2020/12/08 03:27:24;;;;;;;12.43;7.07;;;;;;;;;;5095575;28;20459;-88
2020/12/08 03:29:53;;;;;;;12.40;7.00;;;;;;;;;;5090653;28;20445;-88
2020/12/08 03:32:19;;;;;;;17.60;9.20;;;;;;;;;;5084363;28;20430;-88
2020/12/08 03:34:45;;;;;;;8.73;6.43;;;;;;;;;;5038768;28;20501;-88
2020/12/08 03:37:14;;;;;;;12.17;7.80;;;;;;;;;;5037701;28;20410;-88
2020/12/08 03:39:40;;;;;;;11.70;7.97;;;;;;;;;;5054618;28;20475;-88
2020/12/08 03:42:09;;;;;;;17.40;8.63;;;;;;;;;;5072094;28;20472;-88
2020/12/08 03:44:38;;;;;;;14.03;8.37;;;;;;;;;;5072498;28;20437;-88
2020/12/08 03:47:12;;;;;;;18.80;7.97;;;;;;;;;;5055429;28;20818;-89
2020/12/08 03:49:44;;;;;;;17.27;8.90;;;;;;;;;;5054806;28;20441;-88
2020/12/08 03:52:16;;;;;;;12.43;7.90;;;;;;;;;;5055221;28;20509;-88
2020/12/08 03:54:48;;;;;;;20.17;10.33;;;;;;;;;;5040398;28;21087;-88
2020/12/08 03:57:21;;;;;;;14.57;8.17;;;;;;;;;;5054464;28;20475;-88
2020/12/08 03:59:50;;;;;;;16.13;8.60;;;;;;;;;;5070106;28;20456;-88
2020/12/08 04:02:18;;;;;;;20.20;8.97;;;;;;;;;;5071751;28;20476;-88
2020/12/08 04:04:50;;;;;;;13.53;7.70;;;;;;;;;;5088064;28;20428;-89
2020/12/08 04:07:22;;;;;;;18.17;9.07;;;;;;;;;;5111148;28;20460;-88
2020/12/08 04:09:56;;;;;;;17.40;8.93;;;;;;;;;;5096527;28;20468;-88
2020/12/08 04:12:23;;;;;;;15.03;8.40;;;;;;;;;;5072214;28;20402;-88
2020/12/08 04:15:21;;;;;;;14.90;8.37;;;;;;;;;;5055730;28;20418;-88
2020/12/08 04:18:03;;;;;;;15.20;8.63;;;;;;;;;;5055173;28;20406;-88
2020/12/08 04:20:32;;;;;;;11.40;7.10;;;;;;;;;;5054163;28;20556;-88
2020/12/08 04:23:04;;;;;;;12.23;7.90;;;;;;;;;;5071532;28;20433;-88
2020/12/08 04:25:43;;;;;;;14.37;8.43;;;;;;;;;;5070731;28;20425;-88
2020/12/08 04:28:14;;;;;;;9.57;6.03;;;;;;;;;;5092047;28;20460;-88
2020/12/08 04:30:41;;;;;;;12.30;7.77;;;;;;;;;;5089841;28;20856;-88
2020/12/08 04:33:13;;;;;;;14.10;8.10;;;;;;;;;;5089893;28;20412;-89
2020/12/08 04:35:44;;;;;;;11.70;6.50;;;;;;;;;;5066479;28;20422;-88
2020/12/08 04:38:15;;;;;;;11.67;6.53;;;;;;;;;;5070747;28;20456;-89
2020/12/08 04:40:47;;;;;;;20.20;8.00;;;;;;;;;;5070346;28;20457;-88
2020/12/08 04:43:13;;;;;;;13.27;6.80;;;;;;;;;;5046965;28;20498;-88
2020/12/08 04:45:42;;;;;;;16.00;7.70;;;;;;;;;;5070926;28;20450;-88
2020/12/08 04:48:13;;;;;;;15.80;7.93;;;;;;;;;;5075065;28;20980;-88
2020/12/08 04:50:40;;;;;;;14.47;7.67;;;;;;;;;;5068948;28;20449;-88
2020/12/08 04:53:09;;;;;;;15.33;7.40;;;;;;;;;;5035270;28;20410;-89
2020/12/08 04:55:35;;;;;;;14.53;7.27;;;;;;;;;;5050753;28;20426;-89
2020/12/08 04:58:07;;;;;;;17.00;7.97;;;;;;;;;;5069943;28;20422;-88
2020/12/08 05:00:45;;;;;;;13.93;7.47;;;;;;;;;;5069957;28;20980;-88
2020/12/08 05:03:13;;;;;;;15.57;7.80;;;;;;;;;;5054369;28;20426;-89
2020/12/08 05:05:42;;;;;;;17.93;8.60;;;;;;;;;;5054259;28;20942;-89
2020/12/08 05:08:09;;;;;;;13.30;8.00;;;;;;;;;;5069987;28;20473;-88
2020/12/08 05:10:35;;;;;;;14.87;9.10;;;;;;;;;;5089923;22;20490;-65
2020/12/08 05:13:02;;;;;;;11.90;7.17;;;;;;;;;;5028308;28;20426;-66
2020/12/08 05:15:28;;;;;;;11.93;7.50;;;;;;;;;;5046813;28;20406;-66
2020/12/08 05:18:04;;;;;;;18.87;8.93;;;;;;;;;;5054082;28;20456;-65
2020/12/08 05:20:30;;;;;;;11.30;7.17;;;;;;;;;;5052516;28;20426;-65
2020/12/08 05:25:27;;;;;;;18.10;9.10;;;;;;;;;;5040003;22;20478;-83
2020/12/08 05:27:54;;;;;;;15.40;9.27;;;;;;;;;;5017911;28;20455;-83
2020/12/08 05:30:20;;;;;;;11.00;6.70;;;;;;;;;;5034384;28;20438;-83
2020/12/08 05:32:47;;;;;;;12.90;6.93;;;;;;;;;;5036048;28;20406;-82
2020/12/08 05:35:34;;;;;;;13.33;7.37;;;;;;;;;;5031276;28;20431;-83
2020/12/08 05:38:04;;;;;;;14.87;7.37;;;;;;;;;;5030717;28;20409;-81
2020/12/08 05:40:30;;;;;;;12.30;7.10;;;;;;;;;;5035022;28;20439;-82
2020/12/08 05:42:57;;;;;;;21.03;8.30;;;;;;;;;;5040934;28;20832;-83
2020/12/08 05:45:24;;;;;;;14.10;7.83;;;;;;;;;;5014923;28;20424;-83
2020/12/08 05:47:51;;;;;;;10.47;7.00;;;;;;;;;;5016462;28;20482;-83
2020/12/08 05:50:18;;;;;;;17.47;6.90;;;;;;;;;;5027124;28;20453;-83
2020/12/08 05:52:51;;;;;;;10.63;6.40;;;;;;;;;;5036494;28;20427;-83
2020/12/08 05:55:18;;;;;;;6.60;5.50;;;;;;;;;;5035962;28;20434;-81
2020/12/08 05:57:45;;;;;;;14.83;7.17;;;;;;;;;;5035797;28;20417;-81
2020/12/08 06:00:24;;;;;;;14.77;8.13;;;;;;;;;;5032795;28;21047;-81
2020/12/08 06:02:50;;;;;;;13.60;7.23;;;;;;;;;;5018112;28;20421;-82
2020/12/08 06:05:30;;;;;;;10.83;6.93;;;;;;;;;;5034230;28;20434;-82
2020/12/08 06:07:56;;;;;;;8.60;5.47;;;;;;;;;;5018019;28;20935;-82
2020/12/08 06:10:22;;;;;;;10.57;6.87;;;;;;;;;;5034867;28;20454;-81
2020/12/08 06:13:01;;;;;;;11.00;6.47;;;;;;;;;;5042777;28;20486;-82
2020/12/08 06:15:38;;;;;;;10.13;6.10;;;;;;;;;;5055812;28;20522;-82
2020/12/08 06:18:04;;;;;;;9.63;5.93;;;;;;;;;;5055827;28;20444;-82
2020/12/08 06:20:30;;;;;;;9.37;6.37;;;;;;;;;;5057151;28;20438;-81
2020/12/08 06:22:59;;;;;;;13.23;6.60;;;;;;;;;;5055226;28;20437;-82
2020/12/08 06:25:26;;;;;;;12.90;8.00;;;;;;;;;;5042122;28;20442;-82
2020/12/08 06:27:56;;;;;;;14.00;7.90;;;;;;;;;;5040540;28;20457;-83
2020/12/08 06:30:22;;;;;;;10.23;6.43;;;;;;;;;;5039619;28;20473;-83
2020/12/08 06:32:48;;;;;;;11.57;7.10;;;;;;;;;;5040609;28;20430;-83
2020/12/08 06:35:16;;;;;;;11.13;6.60;;;;;;;;;;5021673;28;20437;-83
2020/12/08 06:37:46;;;;;;;11.67;7.07;;;;;;;;;;5038137;28;20800;-83
2020/12/08 06:40:16;;;;;;;12.37;7.30;;;;;;;;;;5022058;28;20949;-83
2020/12/08 06:42:43;;;;;;;11.07;6.50;;;;;;;;;;5018416;28;20438;-82
2020/12/08 06:45:18;;;;;;;11.30;7.97;;;;;;;;;;5028407;28;20448;-83
2020/12/08 06:47:46;;;;;;;11.43;6.53;;;;;;;;;;5041565;28;20438;-83
2020/12/08 06:50:25;;;;;;;10.23;6.23;;;;;;;;;;5038768;28;20497;-83
2020/12/08 06:52:59;;;;;;;12.27;7.00;;;;;;;;;;5020519;28;20492;-83
2020/12/08 06:55:26;;;;;;;9.23;5.40;;;;;;;;;;5038088;28;20426;-82
2020/12/08 06:57:52;;;;;;;9.90;6.83;;;;;;;;;;5040968;28;20415;-83
2020/12/08 07:00:18;;;;;;;12.77;7.17;;;;;;;;;;5022646;28;20470;-83
2020/12/08 07:02:49;;;;;;;7.80;5.40;;;;;;;;;;5045304;28;20449;-83
2020/12/08 07:05:19;;;;;;;10.40;6.03;;;;;;;;;;5040541;28;20445;-83
2020/12/08 07:07:46;;;;;;;12.70;6.33;;;;;;;;;;5041790;28;20454;-82
2020/12/08 07:10:12;;;;;;;11.10;6.47;;;;;;;;;;5032614;28;20468;-81
2020/12/08 07:12:42;;;;;;;12.13;5.97;;;;;;;;;;5019741;28;20987;-82
2020/12/08 07:15:11;;;;;;;9.87;7.10;;;;;;;;;;5027865;28;20423;-81
2020/12/08 07:17:37;;;;;;;9.73;5.73;;;;;;;;;;5022563;28;20472;-81
2020/12/08 07:20:05;;;;;;;15.17;6.37;;;;;;;;;;5039087;28;20450;-81
2020/12/08 07:22:40;;;;;;;13.43;6.87;;;;;;;;;;5039852;28;20417;-81
2020/12/08 07:25:07;;;;;;;6.97;5.27;;;;;;;;;;5038620;28;20434;-82
2020/12/08 07:27:33;;;;;;;17.90;6.93;;;;;;;;;;5040342;28;20454;-81
2020/12/08 07:29:59;;;;;;;10.87;6.83;;;;;;;;;;5021456;28;20474;-81
2020/12/08 07:32:29;;;;;;;10.70;6.37;;;;;;;;;;5039263;28;20402;-81
2020/12/08 07:34:55;;;;;;;11.63;6.70;;;;;;;;;;5038352;28;20427;-81
2020/12/08 07:37:21;;;;;;;9.27;6.27;;;;;;;;;;5039925;28;20819;-81
2020/12/08 07:39:47;;;;;;;11.70;7.53;;;;;;;;;;5028559;28;20454;-82
2020/12/08 07:42:13;;;;;;;7.23;5.10;;;;;;;;;;5040981;28;20403;-81
2020/12/08 07:44:39;;;;;;;9.70;6.13;;;;;;;;;;5039424;28;20414;-83
2020/12/08 07:47:11;;;;;;;14.93;8.03;;;;;;;;;;5040515;28;20458;-82
2020/12/08 07:49:41;;;;;;;9.50;6.87;;;;;;;;;;5021561;28;20438;-81
2020/12/08 07:52:07;;;;;;;11.47;6.90;;;;;;;;;;5038572;28;20407;-82
2020/12/08 07:54:33;;;;;;;10.70;6.90;;;;;;;;;;5039527;28;20422;-81
2020/12/08 07:56:59;;;;;;;9.73;6.60;;;;;;;;;;5044086;28;20493;-82
2020/12/08 07:59:25;;;;;;;16.20;7.00;;;;;;;;;;5043803;28;20435;-81
2020/12/08 08:01:51;;;;;;;10.07;5.77;;;;;;;;;;5032452;28;20761;-82
2020/12/08 08:04:18;;;;;;;9.57;6.10;;;;;;;;;;5029487;28;20522;-81
2020/12/08 08:06:45;;;;;;;7.67;5.80;;;;;;;;;;5036682;28;20509;-81
2020/12/08 08:09:11;;;;;;;11.00;6.63;;;;;;;;;;5021166;28;20433;-81
2020/12/08 08:11:37;;;;;;;7.47;5.70;;;;;;;;;;5040831;28;20514;-81
2020/12/08 08:14:04;;;;;;;11.37;6.87;;;;;;;;;;5033026;28;21000;-81
2020/12/08 08:16:30;;;;;;;9.50;6.00;;;;;;;;;;5039504;28;20942;-80
2020/12/08 08:18:56;;;;;;;7.13;5.83;;;;;;;;;;5017308;28;20903;-81
2020/12/08 08:21:22;;;;;;;9.50;6.17;;;;;;;;;;5034994;28;20442;-81
2020/12/08 08:23:49;;;;;;;11.90;6.53;;;;;;;;;;5034959;28;20443;-80
2020/12/08 08:26:15;;;;;;;9.20;6.30;;;;;;;;;;5034368;28;20517;-80
2020/12/08 08:28:42;;;;;;;9.87;6.57;;;;;;;;;;5033653;28;20562;-80
2020/12/08 08:31:08;;;;;;;11.97;7.10;;;;;;;;;;5036129;28;20446;-81
2020/12/08 08:33:34;;;;;;;17.10;9.30;;;;;;;;;;5032736;28;20433;-81
2020/12/08 08:36:00;;;;;;;11.87;8.30;;;;;;;;;;5035871;28;20732;-82
2020/12/08 08:38:26;;;;;;;10.90;7.33;;;;;;;;;;5016919;28;20446;-81
2020/12/08 08:40:57;;;;;;;22.90;11.83;;;;;;;;;;5034158;28;20458;-81
2020/12/08 08:43:23;;;;;;;10.23;6.83;;;;;;;;;;5013453;28;20437;-80
2020/12/08 08:45:49;;;;;;;11.40;6.80;;;;;;;;;;5032479;28;20456;-79
2020/12/08 08:48:15;;;;;;;10.23;7.13;;;;;;;;;;5033032;28;20470;-81
2020/12/08 08:50:41;;;;;;;8.10;5.53;;;;;;;;;;5034211;28;20501;-80
2020/12/08 08:53:07;;;;;;;11.27;6.77;;;;;;;;;;5048362;28;20411;-80
2020/12/08 08:55:34;;;;;;;10.30;6.80;;;;;;;;;;5016161;28;20434;-80
2020/12/08 08:58:00;;;;;;;13.27;6.80;;;;;;;;;;5028482;28;20430;-81
2020/12/08 09:00:26;;;;;;;13.00;7.20;;;;;;;;;;5026846;28;20523;-81
2020/12/08 09:02:52;;;;;;;27.17;10.30;;;;;;;;;;5030952;28;20868;-80
2020/12/08 09:05:18;;;;;;;52.27;15.00;;;;;;;;;;5030986;28;20431;-81
2020/12/08 09:07:45;;;;;;;11.73;7.47;;;;;;;;;;5033027;28;20466;-82
2020/12/08 09:10:11;;;;;;;8.83;6.80;;;;;;;;;;5010046;28;20465;-81
2020/12/08 09:12:37;;;;;;;14.83;8.10;;;;;;;;;;5035192;28;20522;-81
2020/12/08 09:15:05;;;;;;;10.17;6.27;;;;;;;;;;5013277;28;20549;-81
2020/12/08 09:17:31;;;;;;;7.97;5.63;;;;;;;;;;5034031;28;20501;-81
2020/12/08 09:19:57;;;;;;;7.40;5.90;;;;;;;;;;5011110;28;20437;-82
2020/12/08 09:22:23;;;;;;;8.10;5.73;;;;;;;;;;5013722;28;20435;-80
2020/12/08 09:24:49;;;;;;;9.67;5.63;;;;;;;;;;5029525;28;20453;-82
2020/12/08 09:27:15;;;;;;;8.87;5.13;;;;;;;;;;5028153;28;20461;-81
2020/12/08 09:29:41;;;;;;;14.00;8.53;;;;;;;;;;5034069;28;20462;-81
2020/12/08 09:32:07;;;;;;;9.47;6.90;;;;;;;;;;5042030;28;20396;-80
2020/12/08 09:34:34;;;;;;;10.30;7.13;;;;;;;;;;5031772;28;20434;-82
2020/12/08 09:37:00;;;;;;;16.57;7.80;;;;;;;;;;5014905;28;20842;-81
2020/12/08 09:39:26;;;;;;;14.70;7.77;;;;;;;;;;5025046;28;20811;-80
2020/12/08 09:41:52;;;;;;;12.20;8.20;;;;;;;;;;5049071;28;20490;-81
2020/12/08 09:44:18;;;;;;;12.07;7.40;;;;;;;;;;5033685;28;20430;-81
2020/12/08 09:46:44;;;;;;;9.10;6.50;;;;;;;;;;5042737;28;20455;-80
2020/12/08 09:49:11;;;;;;;12.93;7.20;;;;;;;;;;5018558;28;20515;-80
2020/12/08 09:51:37;;;;;;;14.57;6.93;;;;;;;;;;5009120;28;20471;-80
2020/12/08 09:54:05;;;;;;;8.03;7.00;;;;;;;;;;5028984;28;20434;-81
2020/12/08 09:56:31;;;;;;;12.63;6.80;;;;;;;;;;5022116;28;20450;-82
2020/12/08 09:58:58;;;;;;;9.00;6.13;;;;;;;;;;5022917;28;20538;-82
2020/12/08 10:01:25;;;;;;;14.33;7.50;;;;;;;;;;5027661;28;20443;-81
2020/12/08 10:03:52;;;;;;;11.43;7.80;;;;;;;;;;5022079;28;20430;-81
2020/12/08 10:06:18;;;;;;;18.60;6.67;;;;;;;;;;5028329;28;20921;-81
2020/12/08 10:08:44;;;;;;;11.03;6.73;;;;;;;;;;5027593;28;20444;-82
2020/12/08 10:11:10;;;;;;;9.90;6.60;;;;;;;;;;5007043;28;20459;-82
2020/12/08 10:13:36;;;;;;;8.80;5.80;;;;;;;;;;5024903;28;20427;-82
2020/12/08 10:16:02;;;;;;;9.35;6.53;;;;;;;;;;5025576;28;20441;-82
2020/12/08 10:18:28;;;;;;;9.00;5.77;;;;;;;;;;5027970;28;20294;-82
2020/12/08 10:20:54;;;;;;;11.20;6.00;;;;;;;;;;5005121;28;20538;-82
2020/12/08 10:23:20;;;;;;;12.90;7.82;;;;;;;;;;5039095;28;20448;-80
2020/12/08 10:25:46;;;;;;;13.10;7.90;;;;;;;;;;5037369;28;20180;-83
2020/12/08 10:28:12;;;;;;;12.80;7.03;;;;;;;;;;5046109;28;20435;-82
2020/12/08 10:30:38;;;;;;;11.63;7.30;;;;;;;;;;5033329;28;20205;-80
2020/12/08 10:33:04;;;;;;;13.47;7.73;;;;;;;;;;5018603;28;20763;-82
2020/12/08 10:35:30;;;;;;;10.90;6.30;;;;;;;;;;5014313;28;20459;-80
2020/12/08 10:37:56;;;;;;;15.30;7.50;;;;;;;;;;5020025;28;20419;-82
2020/12/08 10:40:22;;;;;;;18.83;8.90;;;;;;;;;;5033304;28;20529;-81
2020/12/08 10:42:48;;;;;;;12.00;6.90;;;;;;;;;;5037358;28;20950;-81
2020/12/08 10:45:14;;;;;;;12.80;6.43;;;;;;;;;;5035372;28;20464;-82
2020/12/08 10:47:40;;;;;;;16.90;8.23;;;;;;;;;;5037417;28;20208;-82
2020/12/08 10:50:06;;;;;;;12.63;6.70;;;;;;;;;;5035882;28;20450;-82
2020/12/08 10:52:32;;;;;;;11.27;7.10;;;;;;;;;;5016942;28;20782;-82
2020/12/08 10:54:58;;;;;;;12.17;7.00;;;;;;;;;;5031571;28;20423;-81
2020/12/08 10:57:24;;;;;;;14.40;7.13;;;;;;;;;;5036436;28;20502;-81
2020/12/08 10:59:51;;;;;;;10.10;6.50;;;;;;;;;;5015143;28;20431;-82
2020/12/08 11:02:17;;;;;;;7.87;4.63;;;;;;;;;;5034548;28;20514;-82
2020/12/08 11:04:43;;;;;;;11.23;5.60;;;;;;;;;;5011421;28;20465;-81
2020/12/08 11:07:09;;;;;;;9.73;5.70;;;;;;;;;;5036111;28;20455;-82
2020/12/08 11:09:35;;;;;;;15.70;6.53;;;;;;;;;;5020952;28;20510;-81
2020/12/08 11:12:01;;;;;;;8.90;6.17;;;;;;;;;;5081718;22;20523;-71
2020/12/08 11:14:28;;;;;;;10.43;6.20;;;;;;;;;;5052344;28;21083;-70
2020/12/08 11:16:54;;;;;;;9.30;6.50;;;;;;;;;;5072307;28;20416;-69
2020/12/08 11:19:20;;;;;;;10.13;5.77;;;;;;;;;;5063296;28;20444;-70
2020/12/08 11:21:46;;;;;;;10.37;6.33;;;;;;;;;;5063209;28;20438;-71
2020/12/08 11:24:12;;;;;;;9.30;6.60;;;;;;;;;;5061406;28;20914;-72
2020/12/08 11:26:38;;;;;;;14.50;7.53;;;;;;;;;;5068930;28;20463;-71
2020/12/08 11:29:05;;;;;;;10.73;5.70;;;;;;;;;;5063213;28;20410;-70
2020/12/08 11:31:32;;;;;;;10.20;6.70;;;;;;;;;;5062007;28;21324;-69
2020/12/08 11:33:58;;;;;;;10.07;6.07;;;;;;;;;;5070197;28;20917;-72
2020/12/08 11:36:24;;;;;;;8.47;5.77;;;;;;;;;;5072786;28;20425;-70
2020/12/08 11:38:50;;;;;;;10.15;6.18;;;;;;;;;;5068822;28;20903;-70
2020/12/08 11:41:16;;;;;;;11.47;6.20;;;;;;;;;;5068500;28;20254;-68
2020/12/08 11:43:43;;;;;;;8.17;5.60;;;;;;;;;;5062972;28;20545;-71
2020/12/08 11:46:11;;;;;;;12.20;6.03;;;;;;;;;;5060976;28;20420;-68
2020/12/08 11:48:37;;;;;;;11.43;6.33;;;;;;;;;;5068532;28;20187;-68
2020/12/08 11:51:03;;;;;;;13.43;6.43;;;;;;;;;;5058155;28;20432;-70
2020/12/08 11:53:29;;;;;;;9.37;6.17;;;;;;;;;;5071851;28;20443;-69
2020/12/08 11:55:55;;;;;;;8.27;6.20;;;;;;;;;;5063151;28;21187;-67
2020/12/08 11:58:22;;;;;;;7.83;5.83;;;;;;;;;;5058091;28;20428;-69
2020/12/08 12:00:48;;;;;;;8.03;5.53;;;;;;;;;;5059925;28;20436;-71
2020/12/08 12:03:14;;;;;;;8.97;5.33;;;;;;;;;;5068695;28;20430;-72
2020/12/08 12:05:40;;;;;;;7.70;4.83;;;;;;;;;;5049796;28;20421;-70
2020/12/08 12:08:06;;;;;;;10.33;7.20;;;;;;;;;;5068245;28;20854;-70
2020/12/08 12:10:32;;;;;;;12.10;6.70;;;;;;;;;;5066210;28;20513;-68
2020/12/08 12:12:58;;;;;;;11.87;5.00;;;;;;;;;;5070436;28;20433;-73
2020/12/08 12:15:24;;;;;;;7.63;6.70;;;;;;;;;;5063689;28;20862;-68
2020/12/08 12:17:50;;;;;;;7.87;5.50;;;;;;;;;;5060987;28;20792;-70
2020/12/08 12:20:16;;;;;;;19.23;5.37;;;;;;;;;;5058296;28;20436;-67
2020/12/08 12:22:43;;;;;;;15.43;6.07;;;;;;;;;;5062657;28;20533;-67
2020/12/08 12:25:09;;;;;;;10.90;6.03;;;;;;;;;;5065034;28;20478;-67
2020/12/08 12:27:35;;;;;;;7.87;5.33;;;;;;;;;;5063058;28;20471;-67
2020/12/08 12:30:01;;;;;;;7.97;5.40;;;;;;;;;;5064372;28;20917;-67
2020/12/08 12:32:27;;;;;;;8.90;5.80;;;;;;;;;;5059166;28;20464;-67
2020/12/08 12:34:53;;;;;;;8.13;5.53;;;;;;;;;;5060726;28;20425;-67
2020/12/08 12:37:19;;;;;;;7.70;4.33;;;;;;;;;;5061813;28;20414;-68
2020/12/08 12:39:45;;;;;;;9.13;5.70;;;;;;;;;;5057026;28;20457;-68
2020/12/08 12:42:11;;;;;;;10.67;5.70;;;;;;;;;;5044044;28;20433;-68
2020/12/08 12:44:38;;;;;;;13.77;7.40;;;;;;;;;;5063536;28;20417;-67
2020/12/08 12:47:04;;;;;;;8.83;5.83;;;;;;;;;;5066088;28;20518;-68
2020/12/08 12:52:00;;;;;;;6.23;4.17;;;;;;;;;;5069047;28;20553;-66
2020/12/08 12:54:26;;;;;;;8.50;6.00;;;;;;;;;;5069899;28;20445;-66
2020/12/08 12:56:52;;;;;;;9.50;6.20;;;;;;;;;;5075289;28;20455;-66
2020/12/08 12:59:18;;;;;;;12.50;5.20;;;;;;;;;;5069177;28;22195;-66
2020/12/08 13:01:44;;;;;;;8.17;5.23;;;;;;;;;;5073893;28;20532;-67
2020/12/08 13:04:10;;;;;;;11.10;5.93;;;;;;;;;;5048846;28;20409;-66
2020/12/08 13:06:36;;;;;;;8.70;5.10;;;;;;;;;;5079220;28;20440;-66
2020/12/08 13:09:02;;;;;;;9.90;6.40;;;;;;;;;;5068335;28;20489;-66
2020/12/08 13:11:28;;;;;;;9.93;4.60;;;;;;;;;;5071125;28;20441;-66
2020/12/08 13:13:54;;;;;;;7.93;5.97;;;;;;;;;;5076424;28;20425;-66
2020/12/08 13:16:20;;;;;;;9.47;6.13;;;;;;;;;;5067970;28;20424;-66
2020/12/08 13:18:47;;;;;;;13.33;6.40;;;;;;;;;;5073034;28;20432;-66
2020/12/08 13:21:16;;;;;;;7.23;6.50;;;;;;;;;;5070771;28;20472;-66
2020/12/08 13:23:42;;;;;;;9.13;6.27;;;;;;;;;;5073030;28;20413;-66
2020/12/08 13:26:08;;;;;;;19.43;10.57;;;;;;;;;;5083665;28;20515;-66
2020/12/08 13:28:34;;;;;;;10.70;8.17;;;;;;;;;;5078096;28;20575;-66
2020/12/08 13:31:04;;;;;;;10.05;6.35;;;;;;;;;;5072902;28;20421;-66
2020/12/08 13:33:30;;;;;;;9.45;6.00;;;;;;;;;;5068432;28;20443;-66
2020/12/08 13:35:57;;;;;;;10.07;6.00;;;;;;;;;;5061228;28;20181;-65
2020/12/08 13:38:23;;;;;;;11.33;6.60;;;;;;;;;;5072910;28;20909;-66
2020/12/08 13:40:49;;;;;;;12.13;9.37;;;;;;;;;;5071161;28;20449;-66
2020/12/08 13:43:15;;;;;;;9.43;7.00;;;;;;;;;;5064586;28;20909;-68
2020/12/08 13:45:41;;;;;;;10.43;6.37;;;;;;;;;;5059288;28;20433;-66
2020/12/08 13:48:07;;;;;;;9.83;5.70;;;;;;;;;;5070021;28;20532;-66
2020/12/08 13:50:34;;;;;;;9.40;6.60;;;;;;;;;;5061593;28;21003;-66
2020/12/08 13:53:00;;;;;;;8.97;6.20;;;;;;;;;;5062645;28;20452;-66
2020/12/08 13:55:26;;;;;;;11.70;7.30;;;;;;;;;;5066709;28;21078;-66
2020/12/08 13:57:56;;;;;;;7.80;6.53;;;;;;;;;;5066756;28;20445;-66
2020/12/08 14:00:22;;;;;;;9.90;6.37;;;;;;;;;;5066104;28;20509;-66
2020/12/08 14:02:48;;;;;;;14.33;6.20;;;;;;;;;;5067262;28;20505;-66
2020/12/08 14:05:14;;;;;;;9.73;6.43;;;;;;;;;;5044000;28;20516;-66
2020/12/08 14:07:40;;;;;;;9.40;6.30;;;;;;;;;;5059178;28;20794;-66
2020/12/08 14:10:06;;;;;;;8.10;6.17;;;;;;;;;;5061842;28;20433;-66
2020/12/08 14:12:33;;;;;;;9.53;5.73;;;;;;;;;;5087529;28;20424;-66
2020/12/08 14:14:59;;;;;;;8.97;6.27;;;;;;;;;;5090749;28;20404;-66
2020/12/08 14:17:25;;;;;;;9.40;6.97;;;;;;;;;;5069629;28;20429;-66
2020/12/08 14:19:51;;;;;;;12.50;7.23;;;;;;;;;;5066211;28;20447;-66
2020/12/08 14:22:17;;;;;;;11.10;7.20;;;;;;;;;;5084056;28;20428;-65
2020/12/08 14:24:43;;;;;;;10.80;6.33;;;;;;;;;;5072787;28;20751;-65
2020/12/08 14:27:10;;;;;;;11.07;7.13;;;;;;;;;;5072781;28;20991;-65
2020/12/08 14:29:36;;;;;;;10.60;7.77;;;;;;;;;;5066871;28;20824;-65
2020/12/08 14:32:02;;;;;;;10.70;5.37;;;;;;;;;;5071189;28;20429;-65
2020/12/08 14:34:28;;;;;;;9.23;6.77;;;;;;;;;;5071224;28;20445;-65
2020/12/08 14:36:54;;;;;;;12.60;6.73;;;;;;;;;;5076587;28;20459;-66
2020/12/08 14:39:20;;;;;;;18.20;7.80;;;;;;;;;;5071442;28;20549;-65